Time;durP1;ratioP1;P1;durP2;ratioP2;P2;SDS_P1;SDS_P2;PMS_P1;PMS_P2;Temp;Humidity;BMP_temperature;BMP_pressure;BME280_temperature;BME280_humidity;BME280_pressure;Samples;Min_cycle;Max_cycle;Signal;HPM_P1;HPM_P2
2023/01/24 00:01:02;;;;;;;21.02;14.88;;;;;;;4.11;91.85;99526.13;4151931;28;20231;-85
2023/01/24 00:03:05;;;;;;;24.75;16.13;;;;;;;4.06;91.32;99528.78;4174168;28;20298;-85
2023/01/24 00:05:09;;;;;;;24.88;15.23;;;;;;;4.12;91.72;99523.50;4173031;28;20248;-85
2023/01/24 00:07:12;;;;;;;23.10;15.38;;;;;;;4.14;91.93;99523.47;4173079;28;20627;-85
2023/01/24 00:09:15;;;;;;;25.02;16.92;;;;;;;4.12;91.62;99527.78;4171141;28;20679;-84
2023/01/24 00:11:17;;;;;;;24.20;15.85;;;;;;;4.15;92.17;99522.56;4168605;28;20667;-85
2023/01/24 00:13:22;;;;;;;23.02;16.30;;;;;;;4.11;91.21;99531.28;4155316;28;20294;-85
2023/01/24 00:15:25;;;;;;;24.75;17.20;;;;;;;4.11;91.23;99520.97;4170329;28;20211;-85
2023/01/24 00:17:29;;;;;;;26.98;16.60;;;;;;;4.09;91.61;99520.13;4170293;28;20645;-85
2023/01/24 00:19:32;;;;;;;23.90;16.27;;;;;;;4.11;91.15;99531.28;4153514;28;20261;-84
2023/01/24 00:21:35;;;;;;;24.95;16.27;;;;;;;4.06;91.20;99530.50;4172738;28;21684;-85
2023/01/24 00:23:39;;;;;;;25.50;16.27;;;;;;;4.09;91.36;99531.31;4151863;28;20235;-85
2023/01/24 00:25:42;;;;;;;24.02;15.90;;;;;;;4.12;91.60;99532.97;4139338;28;20219;-85
2023/01/24 00:27:45;;;;;;;24.67;16.75;;;;;;;4.01;91.24;99533.16;4154814;28;20207;-85
2023/01/24 00:29:50;;;;;;;23.13;16.30;;;;;;;3.99;92.58;99531.50;4156951;28;20763;-85
2023/01/24 00:31:53;;;;;;;25.85;16.63;;;;;;;3.96;91.83;99529.00;4172957;28;20199;-85
2023/01/24 00:33:56;;;;;;;23.45;15.52;;;;;;;3.97;91.62;99522.94;4172972;28;20634;-84
2023/01/24 00:35:59;;;;;;;24.92;16.30;;;;;;;3.90;92.89;99516.22;4151873;28;20293;-85
2023/01/24 00:38:02;;;;;;;23.83;15.88;;;;;;;3.93;91.84;99522.16;4155817;28;20255;-85
2023/01/24 00:40:07;;;;;;;26.25;16.05;;;;;;;3.91;91.58;99525.63;4152810;28;20403;-84
2023/01/24 00:42:10;;;;;;;25.08;16.25;;;;;;;3.82;92.74;99528.41;4156634;28;20284;-85
2023/01/24 00:44:13;;;;;;;25.65;16.63;;;;;;;3.82;92.25;99521.50;4167719;28;20206;-85
2023/01/24 00:46:17;;;;;;;26.85;16.02;;;;;;;3.80;92.78;99522.41;4169144;28;20208;-84
2023/01/24 00:48:24;;;;;;;26.98;16.35;;;;;;;3.82;92.57;99529.25;4153902;28;20241;-85
2023/01/24 00:50:27;;;;;;;25.40;16.65;;;;;;;3.84;91.77;99531.81;4150146;28;20213;-85
2023/01/24 00:52:30;;;;;;;26.33;16.90;;;;;;;3.85;92.38;99536.09;4157978;28;20237;-85
2023/01/24 00:54:34;;;;;;;22.88;15.85;;;;;;;3.84;93.40;99529.22;4149195;28;20209;-85
2023/01/24 00:56:37;;;;;;;26.38;17.92;;;;;;;3.74;93.35;99527.69;4169231;28;20304;-84
2023/01/24 00:58:40;;;;;;;24.70;16.23;;;;;;;3.75;93.29;99516.50;4138996;28;20200;-84
2023/01/24 01:00:44;;;;;;;27.20;16.35;;;;;;;3.70;93.91;99517.44;4154171;28;20260;-84
2023/01/24 01:02:48;;;;;;;27.73;17.65;;;;;;;3.72;92.78;99519.97;4167052;28;20213;-84
2023/01/24 01:04:51;;;;;;;24.17;16.33;;;;;;;3.79;93.38;99526.72;4154448;28;20207;-85
2023/01/24 01:06:54;;;;;;;24.90;16.65;;;;;;;3.75;93.02;99529.41;4172516;28;20206;-85
2023/01/24 01:08:59;;;;;;;25.60;16.60;;;;;;;3.73;92.96;99528.59;4169596;28;20261;-85
2023/01/24 01:11:03;;;;;;;25.55;16.77;;;;;;;3.78;93.14;99527.59;4155463;28;20282;-84
2023/01/24 01:13:06;;;;;;;25.23;16.08;;;;;;;3.78;93.74;99519.84;4137982;28;20238;-85
2023/01/24 01:15:10;;;;;;;26.08;15.80;;;;;;;3.79;93.88;99528.47;4152468;28;20218;-85
2023/01/24 01:17:12;;;;;;;25.05;17.70;;;;;;;3.88;92.89;99541.19;4139088;28;20223;-84
2023/01/24 01:19:17;;;;;;;23.52;15.35;;;;;;;3.90;92.26;99529.13;4155051;28;20622;-85
2023/01/24 01:21:21;;;;;;;22.75;15.23;;;;;;;3.89;92.78;99532.56;4144752;28;20788;-85
2023/01/24 01:23:24;;;;;;;22.65;15.68;;;;;;;3.88;93.42;99533.47;4158400;28;20211;-85
2023/01/24 01:25:27;;;;;;;25.65;17.40;;;;;;;3.84;93.23;99530.06;4153299;28;20661;-85
2023/01/24 01:27:30;;;;;;;24.75;15.63;;;;;;;3.87;92.46;99522.28;4170286;28;20241;-84
2023/01/24 01:29:34;;;;;;;24.92;16.42;;;;;;;3.88;92.60;99533.47;4137900;28;20207;-85
2023/01/24 01:31:37;;;;;;;25.40;16.02;;;;;;;3.83;92.69;99536.13;4172441;28;20269;-84
2023/01/24 01:33:40;;;;;;;22.65;14.85;;;;;;;3.80;92.77;99525.88;4149389;28;20199;-84
2023/01/24 01:35:45;;;;;;;21.35;14.88;;;;;;;3.86;92.49;99538.66;4149908;28;20261;-84
2023/01/24 01:37:48;;;;;;;23.30;15.85;;;;;;;3.86;92.91;99538.66;4168975;28;20198;-85
2023/01/24 01:39:51;;;;;;;22.05;14.68;;;;;;;3.88;92.93;99538.63;4173178;28;20301;-84
2023/01/24 01:41:54;;;;;;;21.63;14.70;;;;;;;3.87;92.74;99532.59;4155247;28;20230;-84
2023/01/24 01:46:41;;;;;;;24.45;15.18;;;;;;;3.91;93.10;99543.69;4089408;28;20333;-85
2023/01/24 01:48:47;;;;;;;23.30;15.32;;;;;;;3.92;92.58;99548.81;4117756;28;20230;-85
2023/01/24 01:50:59;;;;;;;19.80;14.27;;;;;;;3.89;93.39;99548.03;4174434;28;20237;-85
2023/01/24 01:53:02;;;;;;;21.75;15.30;;;;;;;3.91;92.70;99554.00;4157813;28;20591;-85
2023/01/24 01:55:09;;;;;;;22.65;16.15;;;;;;;3.94;93.08;99549.66;4143599;28;20769;-85
2023/01/24 01:57:15;;;;;;;22.52;14.88;;;;;;;3.96;92.63;99550.47;4153538;28;20638;-85
2023/01/24 01:59:20;;;;;;;24.50;15.00;;;;;;;3.95;92.83;99541.03;4152402;28;20234;-85
2023/01/24 02:01:23;;;;;;;23.08;15.82;;;;;;;4.01;92.57;99551.22;4167284;28;20202;-85
2023/01/24 02:03:39;;;;;;;24.85;14.73;;;;;;;3.98;92.98;99553.03;4158548;28;20202;-84
2023/01/24 02:05:43;;;;;;;22.95;15.10;;;;;;;3.96;92.67;99544.47;4173610;28;20206;-85
2023/01/24 02:07:53;;;;;;;23.23;15.30;;;;;;;4.01;92.90;99545.22;4157928;28;20199;-84
2023/01/24 02:09:56;;;;;;;19.85;13.63;;;;;;;3.95;91.93;99540.19;4156852;28;20542;-84
2023/01/24 02:12:00;;;;;;;21.75;14.45;;;;;;;3.98;92.31;99540.13;4158938;28;20545;-85
2023/01/24 02:16:24;;;;;;;23.63;14.73;;;;;;;4.00;92.34;99543.53;4154861;28;20442;-85
2023/01/24 02:18:27;;;;;;;23.13;15.48;;;;;;;4.03;92.17;99549.50;4169579;28;20803;-85
2023/01/24 02:20:37;;;;;;;22.38;15.50;;;;;;;3.98;92.21;99546.13;4142759;28;20231;-85
2023/01/24 02:22:46;;;;;;;24.95;15.68;;;;;;;3.97;92.95;99549.59;4156003;28;20214;-85
2023/01/24 02:24:59;;;;;;;24.30;15.30;;;;;;;3.99;92.41;99563.31;4159031;28;20757;-84
2023/01/24 02:27:03;;;;;;;22.25;14.50;;;;;;;3.98;93.31;99568.50;4170946;28;20256;-84
2023/01/24 02:29:08;;;;;;;21.70;15.25;;;;;;;3.93;93.11;99555.69;4176152;28;20777;-85
2023/01/24 02:31:11;;;;;;;20.90;14.30;;;;;;;3.93;93.17;99568.59;4157126;28;20234;-85
2023/01/24 02:33:16;;;;;;;27.00;15.50;;;;;;;3.87;92.22;99565.28;4154104;28;20575;-85
2023/01/24 02:35:25;;;;;;;24.10;15.23;;;;;;;3.81;94.13;99575.72;4158247;28;20206;-84
2023/01/24 02:37:28;;;;;;;23.27;14.88;;;;;;;3.85;93.19;99587.69;4174902;28;20625;-84
2023/01/24 02:39:35;;;;;;;24.73;15.20;;;;;;;3.87;93.24;99588.50;4158807;28;20202;-85
2023/01/24 02:41:43;;;;;;;23.13;15.65;;;;;;;3.91;93.07;99587.56;4168386;28;20198;-85
2023/01/24 02:43:49;;;;;;;23.27;15.80;;;;;;;3.87;93.50;99583.34;4153037;28;20210;-85
2023/01/24 02:45:52;;;;;;;22.55;15.00;;;;;;;3.90;92.87;99583.28;4154362;28;20257;-85
2023/01/24 02:47:56;;;;;;;23.67;14.48;;;;;;;3.91;92.27;99585.84;4141433;28;20294;-84
2023/01/24 02:49:59;;;;;;;22.88;14.70;;;;;;;3.86;93.02;99584.22;4136601;28;20243;-85
2023/01/24 02:54:22;;;;;;;22.95;14.32;;;;;;;3.92;92.97;99592.69;4150165;28;20206;-85
2023/01/24 02:58:47;;;;;;;18.95;13.05;;;;;;;4.02;92.48;99590.81;4155871;28;20234;-85
2023/01/24 03:00:50;;;;;;;20.73;13.90;;;;;;;3.97;93.42;99593.47;4154872;28;20221;-84
2023/01/24 03:02:53;;;;;;;20.77;13.70;;;;;;;3.99;92.88;99593.44;4157012;28;20267;-85
2023/01/24 03:04:56;;;;;;;21.65;14.40;;;;;;;3.99;91.96;99591.69;4156943;28;20207;-85
2023/01/24 03:07:00;;;;;;;20.58;13.50;;;;;;;3.97;92.77;99587.44;4153650;28;20202;-85
2023/01/24 03:09:18;;;;;;;21.00;13.85;;;;;;;3.96;92.34;99591.75;4157808;28;20706;-84
2023/01/24 03:11:24;;;;;;;20.13;13.35;;;;;;;3.99;92.71;99601.19;4167203;28;20244;-85
2023/01/24 03:34:48;;;;;;;24.27;16.13;;;;;;;3.89;93.47;99586.75;4140430;28;20218;-85
2023/01/24 03:36:55;;;;;;;23.83;15.98;;;;;;;3.80;92.46;99585.19;4144707;28;20206;-85
2023/01/24 03:41:20;;;;;;;25.02;15.35;;;;;;;3.77;93.57;99587.81;4157009;28;20203;-85
2023/01/24 03:43:23;;;;;;;26.55;16.95;;;;;;;3.72;92.92;99596.50;4141235;28;20358;-84
2023/01/24 03:45:27;;;;;;;25.13;14.95;;;;;;;3.78;93.58;99594.66;4154649;28;20241;-85
2023/01/24 03:47:32;;;;;;;24.30;15.50;;;;;;;3.77;93.83;99599.84;4155459;28;20294;-84
2023/01/24 03:54:16;;;;;;;27.65;15.85;;;;;;;3.75;93.43;99593.88;4173139;28;20210;-85
2023/01/24 03:56:29;;;;;;;24.70;15.73;;;;;;;3.73;94.35;99591.31;4135440;28;20706;-84
2023/01/24 03:58:35;;;;;;;27.40;16.08;;;;;;;3.80;94.56;99598.09;4136825;28;20219;-85
2023/01/24 04:00:41;;;;;;;28.30;16.30;;;;;;;3.74;94.52;99595.63;4149139;28;20204;-84
2023/01/24 04:03:03;;;;;;;30.88;17.05;;;;;;;3.75;94.09;99597.31;4151728;28;20369;-85
2023/01/24 04:05:13;;;;;;;29.25;16.75;;;;;;;3.74;93.37;99587.00;4154776;28;20242;-85
2023/01/24 04:07:19;;;;;;;27.08;15.73;;;;;;;3.67;94.26;99590.59;4157037;28;20218;-85
2023/01/24 04:09:36;;;;;;;27.52;16.85;;;;;;;3.69;94.99;99588.81;4139374;28;20214;-85
2023/01/24 04:11:39;;;;;;;27.58;16.70;;;;;;;3.65;94.92;99591.47;4139174;28;20211;-85
2023/01/24 04:13:48;;;;;;;27.27;16.90;;;;;;;3.65;94.86;99592.31;4157984;28;20230;-85
2023/01/24 04:15:51;;;;;;;26.73;15.65;;;;;;;3.63;94.30;99591.50;4156463;28;20217;-85
2023/01/24 04:18:07;;;;;;;26.60;16.85;;;;;;;3.70;94.71;99589.66;4154128;28;20207;-85
2023/01/24 04:20:11;;;;;;;26.52;16.90;;;;;;;3.67;94.08;99589.72;4152247;28;20226;-84
2023/01/24 04:22:18;;;;;;;25.77;16.58;;;;;;;3.74;93.98;99581.84;4142417;28;20242;-84
2023/01/24 04:24:21;;;;;;;27.63;16.35;;;;;;;3.74;94.50;99587.88;4148585;28;20231;-85
2023/01/24 04:26:25;;;;;;;30.63;16.45;;;;;;;3.75;94.97;99578.41;4140929;28;20216;-84
2023/01/24 04:28:29;;;;;;;29.05;17.33;;;;;;;3.77;94.69;99577.50;4152653;28;20306;-85
2023/01/24 04:30:33;;;;;;;28.27;16.05;;;;;;;3.83;93.44;99582.56;4149061;28;20293;-85
2023/01/24 04:32:41;;;;;;;28.08;17.25;;;;;;;3.82;93.16;99590.31;4158434;28;20263;-85
2023/01/24 04:34:54;;;;;;;27.73;16.48;;;;;;;3.75;93.80;99586.13;4158029;28;20206;-86
2023/01/24 04:37:13;;;;;;;25.50;16.85;;;;;;;3.72;94.44;99583.63;4153992;28;20203;-85
2023/01/24 04:39:17;;;;;;;26.52;16.10;;;;;;;3.65;94.38;99578.59;4142249;28;20302;-85
2023/01/24 04:41:35;;;;;;;28.60;17.88;;;;;;;3.65;94.03;99587.16;4157563;28;20198;-85
2023/01/24 04:43:38;;;;;;;25.65;15.98;;;;;;;3.73;93.49;99587.91;4151625;28;20230;-85
2023/01/24 04:45:41;;;;;;;28.45;16.20;;;;;;;3.69;94.54;99588.81;4148176;28;20241;-85
2023/01/24 04:47:47;;;;;;;27.08;17.10;;;;;;;3.70;94.23;99597.41;4135672;28;20210;-85
2023/01/24 04:49:50;;;;;;;25.73;15.90;;;;;;;3.76;93.73;99601.59;4171207;28;20344;-85
2023/01/24 04:51:56;;;;;;;28.25;16.10;;;;;;;3.79;93.05;99601.53;4139923;28;20203;-85
2023/01/24 04:54:06;;;;;;;25.90;16.05;;;;;;;3.78;93.63;99604.16;4158243;28;20215;-85
2023/01/24 04:56:11;;;;;;;29.88;16.25;;;;;;;3.69;93.13;99609.47;4157152;28;20297;-85
2023/01/24 04:58:14;;;;;;;25.73;16.25;;;;;;;3.70;94.15;99603.44;4138224;28;20211;-85
2023/01/24 05:00:18;;;;;;;27.35;16.85;;;;;;;3.74;93.81;99597.31;4151372;28;20307;-85
2023/01/24 05:02:21;;;;;;;27.60;17.13;;;;;;;3.70;93.67;99603.44;4159476;28;20213;-85
2023/01/24 05:04:24;;;;;;;26.13;16.45;;;;;;;3.72;93.10;99605.09;4125629;28;20228;-85
2023/01/24 05:06:28;;;;;;;29.42;18.17;;;;;;;3.67;94.38;99602.63;4171706;28;20210;-85
2023/01/24 05:08:34;;;;;;;27.08;16.48;;;;;;;3.74;93.73;99613.69;4156305;28;21117;-85
2023/01/24 05:10:39;;;;;;;30.92;17.92;;;;;;;3.71;93.74;99612.00;4156010;28;20210;-85
2023/01/24 05:12:42;;;;;;;26.67;15.95;;;;;;;3.77;94.02;99625.66;4171702;28;20221;-85
2023/01/24 05:14:51;;;;;;;27.27;16.40;;;;;;;3.85;93.59;99621.22;4154942;28;20206;-85
2023/01/24 05:16:54;;;;;;;28.95;17.27;;;;;;;3.89;94.30;99630.59;4170871;28;20221;-85
2023/01/24 05:18:57;;;;;;;28.33;16.02;;;;;;;3.93;93.41;99629.69;4156627;28;20642;-85
2023/01/24 05:21:06;;;;;;;24.88;14.90;;;;;;;4.01;93.67;99627.81;4154738;28;20234;-85
2023/01/24 05:23:09;;;;;;;25.17;16.10;;;;;;;4.02;92.66;99629.50;4140854;28;20203;-85
2023/01/24 05:25:18;;;;;;;25.40;15.27;;;;;;;4.03;92.87;99633.78;4155143;28;20791;-85
2023/01/24 05:27:21;;;;;;;27.38;16.27;;;;;;;3.98;92.84;99625.28;4156449;28;20211;-85
2023/01/24 05:29:31;;;;;;;27.50;17.38;;;;;;;3.96;92.87;99627.88;4141004;28;20294;-85
2023/01/24 05:31:37;;;;;;;25.58;16.38;;;;;;;3.97;92.89;99628.72;4157756;28;20298;-85
2023/01/24 05:33:41;;;;;;;24.40;15.70;;;;;;;3.92;93.57;99628.81;4158660;28;20750;-85
2023/01/24 05:35:45;;;;;;;27.25;16.35;;;;;;;3.99;93.03;99632.16;4140693;28;20259;-85
2023/01/24 05:37:48;;;;;;;23.10;15.13;;;;;;;3.98;92.97;99633.03;4156886;28;20238;-85
2023/01/24 05:39:54;;;;;;;27.10;16.92;;;;;;;4.01;92.33;99622.63;4155182;28;20302;-85
2023/01/24 05:41:58;;;;;;;24.60;15.75;;;;;;;4.00;92.42;99631.25;4143709;28;20269;-85
2023/01/24 05:44:08;;;;;;;25.80;15.38;;;;;;;3.95;93.33;99633.91;4170842;28;20760;-85
2023/01/24 05:46:16;;;;;;;26.98;16.05;;;;;;;3.94;93.21;99634.81;4172742;28;20214;-85
2023/01/24 05:48:29;;;;;;;25.70;16.20;;;;;;;4.03;94.15;99647.56;4155069;28;20740;-87
2023/01/24 05:50:32;;;;;;;24.05;15.00;;;;;;;4.06;93.16;99650.09;4156595;28;20219;-86
2023/01/24 05:52:46;;;;;;;25.33;15.75;;;;;;;4.11;93.44;99647.41;4172005;28;20207;-87
2023/01/24 05:54:49;;;;;;;23.50;14.93;;;;;;;4.09;92.55;99649.16;4154892;28;20678;-84
2023/01/24 05:57:01;;;;;;;25.30;16.45;;;;;;;4.09;92.36;99644.88;4144379;28;20748;-86
2023/01/24 05:59:13;;;;;;;22.58;14.43;;;;;;;4.11;92.71;99650.00;4158128;28;20265;-84
2023/01/24 06:01:18;;;;;;;27.92;15.10;;;;;;;4.14;92.76;99650.78;4153472;28;20268;-85
2023/01/24 06:03:22;;;;;;;21.15;14.30;;;;;;;4.17;93.11;99652.47;4139297;28;20212;-85
2023/01/24 06:05:26;;;;;;;22.73;14.48;;;;;;;4.13;92.37;99638.75;4141113;28;20239;-85
2023/01/24 06:07:29;;;;;;;27.35;16.10;;;;;;;4.15;92.40;99633.56;4157385;28;20210;-85
2023/01/24 06:09:32;;;;;;;21.67;14.25;;;;;;;4.16;92.31;99635.28;4159624;28;20803;-85
2023/01/24 06:11:35;;;;;;;21.98;14.65;;;;;;;4.15;92.89;99641.31;4173602;28;20309;-84
2023/01/24 06:13:54;;;;;;;24.98;15.88;;;;;;;4.15;92.33;99647.34;4155171;28;20605;-84
2023/01/24 06:16:05;;;;;;;20.85;13.80;;;;;;;4.16;91.93;99658.50;4139730;28;20218;-85
2023/01/24 06:18:13;;;;;;;20.75;13.68;;;;;;;4.18;92.64;99665.34;4164763;28;20202;-84
2023/01/24 06:20:18;;;;;;;20.90;13.18;;;;;;;4.15;93.10;99665.41;4160705;28;20218;-85
2023/01/24 06:22:25;;;;;;;23.45;13.65;;;;;;;4.09;92.77;99665.50;4143017;28;20239;-85
2023/01/24 06:24:29;;;;;;;21.02;13.50;;;;;;;4.11;92.50;99660.31;4159341;28;20226;-85
2023/01/24 06:26:45;;;;;;;27.67;16.45;;;;;;;4.12;92.46;99672.31;4139641;28;20211;-84
2023/01/24 06:28:48;;;;;;;19.38;12.45;;;;;;;4.04;92.77;99669.88;4176641;28;20217;-84
2023/01/24 06:31:00;;;;;;;23.15;13.52;;;;;;;4.00;93.45;99675.13;4157731;28;20202;-84
2023/01/24 06:33:15;;;;;;;21.70;14.07;;;;;;;3.98;92.29;99674.31;4168945;28;20197;-85
2023/01/24 06:35:22;;;;;;;22.60;14.35;;;;;;;4.04;93.34;99680.19;4173392;28;20209;-84
2023/01/24 06:37:30;;;;;;;22.50;14.13;;;;;;;4.06;92.56;99683.63;4139892;28;20202;-85
2023/01/24 06:39:34;;;;;;;21.20;14.32;;;;;;;4.11;93.74;99681.81;4174057;28;20212;-85
2023/01/24 06:41:38;;;;;;;30.55;18.38;;;;;;;4.16;93.31;99689.47;4169417;28;20211;-85
2023/01/24 06:43:41;;;;;;;27.65;17.60;;;;;;;4.18;92.86;99691.16;4162455;28;20256;-85
2023/01/24 06:45:44;;;;;;;27.55;16.38;;;;;;;4.22;92.91;99696.25;4152363;28;20238;-85
2023/01/24 06:47:49;;;;;;;23.25;15.00;;;;;;;4.26;92.14;99700.44;4156152;28;20206;-85
2023/01/24 06:49:52;;;;;;;24.40;14.98;;;;;;;4.20;91.37;99691.97;4141780;28;20203;-85
2023/01/24 06:51:55;;;;;;;25.70;15.10;;;;;;;4.17;92.66;99692.03;4155528;28;20210;-84
2023/01/24 06:53:58;;;;;;;23.33;15.07;;;;;;;4.20;92.08;99690.22;4157202;28;20207;-85
2023/01/24 06:56:03;;;;;;;26.63;16.30;;;;;;;4.27;92.16;99698.75;4174409;28;20203;-85
2023/01/24 06:58:06;;;;;;;26.17;16.15;;;;;;;4.24;91.40;99703.97;4139959;28;20871;-85
2023/01/24 07:00:10;;;;;;;25.45;16.20;;;;;;;4.21;92.06;99701.44;4137713;28;20200;-84
2023/01/24 07:02:13;;;;;;;23.05;14.38;;;;;;;4.24;92.79;99706.53;4156186;28;20202;-85
2023/01/24 07:04:18;;;;;;;44.70;22.65;;;;;;;4.20;92.81;99702.31;4153369;28;20214;-85
2023/01/24 07:06:22;;;;;;;37.58;22.42;;;;;;;4.20;91.55;99693.72;4141205;28;20207;-85
2023/01/24 07:08:26;;;;;;;36.60;21.15;;;;;;;4.20;92.05;99691.97;4140491;28;20262;-85
2023/01/24 07:10:29;;;;;;;23.55;14.88;;;;;;;4.13;91.75;99690.38;4157867;28;20225;-85
2023/01/24 07:12:32;;;;;;;24.15;15.57;;;;;;;4.19;91.50;99697.16;4153967;28;20221;-85
2023/01/24 07:14:35;;;;;;;33.15;19.27;;;;;;;4.16;92.05;99689.47;4172841;28;20249;-85
2023/01/24 07:16:38;;;;;;;73.90;27.60;;;;;;;4.16;92.97;99689.47;4153653;28;20199;-85
2023/01/24 07:18:42;;;;;;;31.13;17.80;;;;;;;4.20;92.05;99695.41;4156355;28;20203;-85
2023/01/24 07:20:47;;;;;;;60.05;28.05;;;;;;;4.13;92.86;99679.19;4174324;28;20320;-85
2023/01/24 07:22:50;;;;;;;30.40;19.38;;;;;;;4.11;93.10;99686.97;4166937;28;20689;-85
2023/01/24 07:24:54;;;;;;;40.13;22.80;;;;;;;4.13;92.61;99698.13;4157016;28;20226;-85
2023/01/24 07:26:58;;;;;;;32.13;19.50;;;;;;;4.18;93.57;99708.34;4157879;28;20675;-85
2023/01/24 07:29:01;;;;;;;29.27;18.20;;;;;;;4.24;93.19;99715.13;4158776;28;20211;-85
2023/01/24 07:31:05;;;;;;;30.75;18.10;;;;;;;4.27;91.89;99714.25;4153997;28;20206;-84
2023/01/24 07:33:08;;;;;;;49.83;26.00;;;;;;;4.30;91.73;99722.78;4174823;28;20210;-85
2023/01/24 07:35:11;;;;;;;99.63;46.25;;;;;;;4.33;91.56;99720.13;4154650;28;21079;-87
2023/01/24 07:37:17;;;;;;;36.50;19.92;;;;;;;4.37;91.94;99716.59;4145312;28;20238;-87
2023/01/24 07:39:20;;;;;;;30.40;17.85;;;;;;;4.36;91.79;99714.91;4175519;28;20280;-87
2023/01/24 07:41:24;;;;;;;25.67;16.15;;;;;;;4.20;91.72;99714.38;4156709;28;20218;-87
2023/01/24 07:43:28;;;;;;;29.27;17.67;;;;;;;4.20;92.47;99714.38;4143327;28;20214;-87
2023/01/24 07:45:32;;;;;;;28.83;18.58;;;;;;;4.20;92.47;99726.38;4142767;28;20220;-87
2023/01/24 07:47:35;;;;;;;33.33;20.55;;;;;;;4.27;92.82;99738.31;4176285;28;20216;-87
2023/01/24 07:49:38;;;;;;;27.92;16.67;;;;;;;4.27;91.63;99737.47;4144295;28;20238;-88
2023/01/24 07:51:41;;;;;;;30.50;16.90;;;;;;;4.20;92.14;99737.59;4156649;28;20290;-88
2023/01/24 07:53:47;;;;;;;25.85;17.00;;;;;;;4.20;91.74;99739.28;4160095;28;20625;-87
2023/01/24 07:55:50;;;;;;;24.42;16.48;;;;;;;4.22;92.26;99737.56;4139582;28;20208;-87
2023/01/24 07:58:04;;;;;;;24.63;14.77;;;;;;;4.24;92.25;99738.38;4172552;28;20198;-87
2023/01/24 08:00:08;;;;;;;21.33;15.00;;;;;;;4.31;91.75;99749.44;4161419;28;20296;-88
2023/01/24 08:02:14;;;;;;;26.85;16.48;;;;;;;4.36;91.89;99745.91;4154731;28;20261;-86
2023/01/24 08:04:17;;;;;;;29.40;17.98;;;;;;;4.38;91.67;99753.63;4159669;28;20219;-85
2023/01/24 08:06:20;;;;;;;26.92;16.85;;;;;;;4.39;90.83;99755.31;4155185;28;20235;-85
2023/01/24 08:08:23;;;;;;;28.05;15.70;;;;;;;4.40;91.56;99755.28;4155019;28;20206;-85
2023/01/24 08:10:29;;;;;;;22.60;14.68;;;;;;;4.29;91.23;99753.78;4162687;28;20202;-85
2023/01/24 08:12:32;;;;;;;23.15;15.35;;;;;;;4.24;90.68;99755.59;4135356;28;20684;-84
2023/01/24 08:14:35;;;;;;;22.33;14.05;;;;;;;4.25;91.54;99757.28;4167809;28;20305;-84
2023/01/24 08:16:38;;;;;;;24.83;15.82;;;;;;;4.28;92.44;99755.53;4154072;28;20216;-84
2023/01/24 08:18:41;;;;;;;22.02;14.05;;;;;;;4.31;91.87;99759.75;4145221;28;20337;-84
2023/01/24 08:20:44;;;;;;;35.95;17.30;;;;;;;4.23;91.39;99761.63;4159779;28;20473;-85
2023/01/24 08:22:47;;;;;;;36.70;17.48;;;;;;;4.18;91.72;99750.53;4149206;28;20211;-84
2023/01/24 08:25:00;;;;;;;22.48;14.10;;;;;;;4.21;92.12;99755.66;4162623;28;20632;-86
2023/01/24 08:27:05;;;;;;;19.42;13.30;;;;;;;4.13;92.21;99756.63;4166623;28;20226;-85
2023/01/24 08:29:08;;;;;;;18.70;13.20;;;;;;;4.15;92.59;99752.28;4143413;28;20265;-86
2023/01/24 08:31:11;;;;;;;19.40;13.13;;;;;;;4.10;92.67;99756.69;4146435;28;20215;-85
2023/01/24 08:33:17;;;;;;;21.90;13.73;;;;;;;4.09;92.19;99762.72;4157393;28;20734;-85
2023/01/24 08:35:20;;;;;;;20.10;13.77;;;;;;;4.08;92.02;99769.63;4150848;28;20214;-85
2023/01/24 08:37:24;;;;;;;20.23;12.95;;;;;;;4.04;93.05;99774.84;4156022;28;20256;-85
2023/01/24 08:39:27;;;;;;;20.42;12.30;;;;;;;4.08;91.87;99773.94;4165774;28;20205;-85
2023/01/24 08:41:31;;;;;;;19.08;12.57;;;;;;;4.14;92.48;99768.69;4152953;28;20223;-85
2023/01/24 08:43:35;;;;;;;19.08;11.63;;;;;;;4.14;92.51;99782.41;4169139;28;20217;-85
2023/01/24 08:45:39;;;;;;;18.40;11.90;;;;;;;4.22;91.03;99773.69;4152132;28;20210;-86
2023/01/24 08:47:42;;;;;;;19.25;12.55;;;;;;;4.21;92.55;99781.47;4152684;28;20210;-85
2023/01/24 08:49:45;;;;;;;18.70;12.43;;;;;;;4.19;91.11;99780.59;4151222;28;20241;-85
2023/01/24 08:51:48;;;;;;;18.85;11.93;;;;;;;4.24;92.37;99790.00;4138520;28;20242;-87
2023/01/24 08:53:51;;;;;;;17.27;11.45;;;;;;;4.33;92.31;99783.81;4128735;28;20219;-86
2023/01/24 08:55:54;;;;;;;27.95;15.05;;;;;;;4.39;92.25;99794.91;4146659;28;20207;-86
2023/01/24 08:58:00;;;;;;;22.20;13.88;;;;;;;4.36;91.32;99782.06;4132183;28;20648;-86
2023/01/24 09:00:06;;;;;;;20.27;13.68;;;;;;;4.35;91.15;99784.66;4155133;28;20294;-86
2023/01/24 09:02:09;;;;;;;20.13;12.73;;;;;;;4.43;91.77;99788.78;4160803;28;20211;-86
2023/01/24 09:04:13;;;;;;;24.23;14.18;;;;;;;4.51;91.05;99786.97;4144820;28;20239;-86
2023/01/24 09:06:16;;;;;;;26.48;15.90;;;;;;;4.50;90.21;99795.56;4177828;28;20248;-86
2023/01/24 09:08:19;;;;;;;21.77;14.02;;;;;;;4.46;90.55;99785.31;4162401;28;20320;-86
2023/01/24 09:10:22;;;;;;;18.00;11.43;;;;;;;4.50;90.04;99800.75;4159624;28;20706;-86
2023/01/24 09:12:25;;;;;;;19.25;12.18;;;;;;;4.51;91.28;99794.72;4159288;28;20249;-86
2023/01/24 09:14:28;;;;;;;19.50;12.80;;;;;;;4.53;89.83;99792.09;4172731;28;20222;-86
2023/01/24 09:16:33;;;;;;;17.67;12.00;;;;;;;4.52;89.73;99788.63;4175430;28;20240;-86
2023/01/24 09:18:36;;;;;;;18.90;12.38;;;;;;;4.44;91.11;99781.94;4140910;28;20208;-86
2023/01/24 09:20:39;;;;;;;17.80;12.10;;;;;;;4.41;90.28;99781.97;4158480;28;20663;-86
2023/01/24 09:22:42;;;;;;;20.02;12.70;;;;;;;4.39;91.37;99784.59;4172135;28;20241;-86
2023/01/24 09:24:45;;;;;;;18.45;11.57;;;;;;;4.48;90.26;99793.88;4144851;28;20615;-86
2023/01/24 09:26:48;;;;;;;17.60;11.20;;;;;;;4.48;91.65;99791.31;4177331;28;20217;-86
2023/01/24 09:28:51;;;;;;;14.85;10.77;;;;;;;4.47;91.45;99793.03;4160318;28;20250;-87
2023/01/24 09:30:54;;;;;;;18.13;12.50;;;;;;;4.38;91.43;99802.69;4162360;28;20241;-86
2023/01/24 09:32:58;;;;;;;15.23;10.93;;;;;;;4.34;91.38;99793.28;4171790;28;20202;-86
2023/01/24 09:35:01;;;;;;;20.63;13.10;;;;;;;4.21;91.07;99792.63;4157352;28;20635;-86
2023/01/24 09:37:05;;;;;;;16.15;11.07;;;;;;;4.20;91.32;99790.06;4173943;28;20264;-86
2023/01/24 09:39:08;;;;;;;18.65;11.68;;;;;;;4.20;91.28;99792.66;4156598;28;20295;-86
2023/01/24 09:41:18;;;;;;;15.32;11.07;;;;;;;4.23;91.60;99790.03;4153161;28;20692;-86
2023/01/24 09:43:40;;;;;;;17.58;11.02;;;;;;;4.28;91.44;99794.25;4171876;28;20213;-86
2023/01/24 09:45:50;;;;;;;17.05;12.40;;;;;;;4.30;91.44;99797.66;4157985;28;20241;-86
2023/01/24 09:47:56;;;;;;;17.23;11.63;;;;;;;4.35;91.59;99806.16;4156954;28;20223;-86
2023/01/24 09:50:04;;;;;;;16.55;11.88;;;;;;;4.32;92.14;99798.47;4174143;28;20272;-86
2023/01/24 09:52:23;;;;;;;21.00;12.80;;;;;;;4.33;91.83;99802.75;4156198;28;20754;-86
2023/01/24 09:54:32;;;;;;;15.48;10.68;;;;;;;4.31;91.99;99812.22;4142464;28;20218;-86
2023/01/24 09:56:37;;;;;;;19.33;12.55;;;;;;;4.26;92.58;99806.31;4171168;28;20233;-85
2023/01/24 09:58:43;;;;;;;16.60;11.32;;;;;;;4.27;91.27;99813.19;4151500;28;20222;-86
2023/01/24 10:00:50;;;;;;;17.58;12.20;;;;;;;4.34;92.38;99803.59;4153938;28;20210;-86
2023/01/24 10:02:55;;;;;;;18.77;12.27;;;;;;;4.40;91.22;99806.94;4162866;28;20211;-84
2023/01/24 10:05:01;;;;;;;16.90;11.45;;;;;;;4.40;90.80;99813.81;4156673;28;20203;-85
2023/01/24 10:07:33;;;;;;;18.73;12.15;;;;;;;4.43;91.26;99809.47;4157134;28;20576;-85
2023/01/24 10:09:45;;;;;;;20.92;13.32;;;;;;;4.54;91.46;99815.31;4173975;28;20207;-85
2023/01/24 10:11:54;;;;;;;16.35;11.13;;;;;;;4.64;90.86;99811.69;4154295;28;20218;-86
2023/01/24 10:14:17;;;;;;;18.48;11.60;;;;;;;4.61;91.06;99822.06;4166544;28;20725;-85
2023/01/24 10:16:35;;;;;;;20.52;12.45;;;;;;;4.68;90.89;99814.19;4168985;28;20755;-85
2023/01/24 10:18:46;;;;;;;17.63;11.20;;;;;;;4.75;90.66;99818.38;4170099;28;20202;-85
2023/01/24 10:21:08;;;;;;;17.90;12.00;;;;;;;4.66;90.00;99816.81;4171691;28;20209;-85